Time;durP1;ratioP1;P1;durP2;ratioP2;P2;SDS_P1;SDS_P2;PMS_P1;PMS_P2;Temp;Humidity;BMP_temperature;BMP_pressure;BME280_temperature;BME280_humidity;BME280_pressure;Samples;Min_cycle;Max_cycle;Signal;HPM_P1;HPM_P2
2021/04/17 00:00:03;;;;;;;71.85;38.50;;;;;;;2.46;79.14;97337.94;1785904;80;25368;-80
2021/04/17 00:02:30;;;;;;;73.85;37.48;;;;;;;2.46;79.17;97332.11;1790011;78;25759;-80
2021/04/17 00:04:58;;;;;;;62.13;35.38;;;;;;;2.47;79.15;97332.45;1796958;78;25857;-79
2021/04/17 00:07:26;;;;;;;58.35;33.70;;;;;;;2.49;79.15;97332.29;1782116;79;27569;-80
2021/04/17 00:09:53;;;;;;;59.00;31.45;;;;;;;2.48;79.11;97322.12;1754747;80;25567;-80
2021/04/17 00:12:21;;;;;;;56.08;31.40;;;;;;;2.51;79.12;97323.64;1754667;80;25807;-78
2021/04/17 00:14:51;;;;;;;53.63;30.88;;;;;;;2.51;79.11;97329.80;1758335;80;26104;-76
2021/04/17 00:17:21;;;;;;;48.02;28.85;;;;;;;2.49;79.09;97327.80;1763298;80;26096;-77
2021/04/17 00:19:53;;;;;;;49.67;29.77;;;;;;;2.49;79.10;97333.13;1785829;80;27643;-77
2021/04/17 00:22:20;;;;;;;51.25;30.15;;;;;;;2.48;79.12;97326.13;1763945;80;25858;-78
2021/04/17 00:24:48;;;;;;;50.15;29.57;;;;;;;2.50;79.17;97326.80;1778504;80;25695;-77
2021/04/17 00:27:16;;;;;;;48.63;29.27;;;;;;;2.51;79.17;97329.80;1754640;80;25959;-77
2021/04/17 00:29:44;;;;;;;56.02;31.10;;;;;;;2.49;79.18;97323.80;1788176;80;25752;-78
2021/04/17 00:32:12;;;;;;;52.70;32.45;;;;;;;2.50;79.23;97316.14;1784883;80;28691;-77
2021/04/17 00:34:39;;;;;;;63.35;36.30;;;;;;;2.50;79.22;97321.47;1785923;80;26278;-77
2021/04/17 00:37:08;;;;;;;57.35;33.67;;;;;;;2.51;79.18;97319.64;1784652;80;25852;-77
2021/04/17 00:39:35;;;;;;;60.33;36.33;;;;;;;2.49;79.14;97323.80;1749224;81;26160;-77
2021/04/17 00:42:03;;;;;;;58.13;34.67;;;;;;;2.47;79.15;97324.45;1745356;81;26304;-77
2021/04/17 00:44:33;;;;;;;58.33;35.08;;;;;;;2.48;79.14;97318.63;1745224;81;27491;-76
2021/04/17 00:47:06;;;;;;;59.90;35.58;;;;;;;2.44;79.09;97321.27;1745077;81;25785;-77
2021/04/17 00:49:34;;;;;;;62.38;34.63;;;;;;;2.44;79.11;97316.78;1757252;79;25827;-77
2021/04/17 00:52:02;;;;;;;58.08;34.48;;;;;;;2.44;79.14;97315.45;1741386;81;25831;-77
2021/04/17 00:54:30;;;;;;;61.05;36.58;;;;;;;2.43;79.17;97319.11;1750813;81;25868;-77
2021/04/17 00:56:57;;;;;;;61.95;36.15;;;;;;;2.43;79.24;97317.77;1734667;81;27681;-75
2021/04/17 00:59:25;;;;;;;57.58;34.48;;;;;;;2.42;79.24;97317.93;1732371;81;25778;-76
2021/04/17 01:01:52;;;;;;;60.25;36.70;;;;;;;2.43;79.27;97323.10;1732349;81;25714;-76
2021/04/17 01:04:36;;;;;;;63.42;35.08;;;;;;;2.44;79.26;97318.61;1711424;82;25876;-76
2021/04/17 01:07:27;;;;;;;53.35;32.10;;;;;;;2.41;79.25;97320.28;1766833;81;25894;-76
2021/04/17 01:10:07;;;;;;;58.48;33.67;;;;;;;2.39;79.27;97326.27;1760442;79;28483;-76
2021/04/17 01:12:39;;;;;;;47.85;29.23;;;;;;;2.40;79.32;97328.78;1732393;81;25771;-76
2021/04/17 01:15:11;;;;;;;68.90;38.15;;;;;;;2.41;79.35;97318.95;1731195;81;25944;-76
2021/04/17 01:17:40;;;;;;;62.73;37.27;;;;;;;2.41;79.40;97319.79;1747054;79;25724;-76
2021/04/17 01:20:19;;;;;;;67.97;38.63;;;;;;;2.41;79.40;97319.79;1741300;79;25784;-76
2021/04/17 01:23:00;;;;;;;70.62;39.60;;;;;;;2.42;79.40;97320.59;1747975;81;27565;-76
2021/04/17 01:25:45;;;;;;;67.92;38.63;;;;;;;2.44;79.42;97320.77;1731939;81;25685;-79
2021/04/17 01:28:12;;;;;;;56.18;34.00;;;;;;;2.45;79.43;97318.45;1689307;84;26437;-79
2021/04/17 01:30:41;;;;;;;52.15;30.75;;;;;;;2.46;79.41;97321.45;1732180;81;26495;-78
2021/04/17 01:33:09;;;;;;;49.55;28.77;;;;;;;2.46;79.40;97320.12;1732838;81;25863;-78
2021/04/17 01:35:38;;;;;;;44.83;26.80;;;;;;;2.46;79.41;97313.45;1732825;82;28490;-79
2021/04/17 01:38:17;;;;;;;44.03;26.45;;;;;;;2.47;79.41;97312.96;1732599;81;25466;-76
2021/04/17 01:40:49;;;;;;;40.52;25.72;;;;;;;2.46;79.39;97320.12;1732866;81;25926;-76
2021/04/17 01:43:18;;;;;;;38.78;24.23;;;;;;;2.47;79.39;97320.95;1732919;82;25732;-76
2021/04/17 01:45:46;;;;;;;46.40;26.93;;;;;;;2.48;79.41;97323.46;1732720;81;25768;-76
2021/04/17 01:48:15;;;;;;;132.85;48.95;;;;;;;2.48;79.40;97326.13;1732837;82;27509;-77
2021/04/17 01:50:43;;;;;;;83.35;37.05;;;;;;;2.49;79.33;97323.80;1732624;81;25831;-76
2021/04/17 01:53:16;;;;;;;71.87;36.28;;;;;;;2.49;79.31;97323.80;1708526;81;25868;-76
2021/04/17 01:55:46;;;;;;;65.72;35.70;;;;;;;2.49;79.30;97325.63;1732785;81;25786;-77
2021/04/17 01:58:21;;;;;;;68.87;39.55;;;;;;;2.47;79.30;97324.45;1732767;82;25869;-76
2021/04/17 02:03:30;;;;;;;57.90;30.88;;;;;;;2.49;79.25;97323.80;1832344;76;34848;-78
2021/04/17 02:05:58;;;;;;;49.60;27.50;;;;;;;2.42;79.22;97329.42;1776322;78;25696;-78
2021/04/17 02:08:25;;;;;;;54.45;29.70;;;;;;;2.40;79.25;97327.45;1784424;78;27494;-78
2021/04/17 02:10:53;;;;;;;51.53;28.27;;;;;;;2.37;79.19;97330.42;1786917;78;25828;-79
2021/04/17 02:13:21;;;;;;;44.25;26.07;;;;;;;2.36;79.21;97327.92;1776306;77;25728;-78
2021/04/17 02:15:49;;;;;;;39.08;25.15;;;;;;;2.35;79.22;97324.91;1776258;78;25771;-79
2021/04/17 02:18:24;;;;;;;60.70;35.40;;;;;;;2.33;79.21;97325.08;1779102;78;25317;-78
2021/04/17 02:21:05;;;;;;;38.38;25.05;;;;;;;2.32;79.19;97328.73;1787366;77;27509;-78
2021/04/17 02:23:34;;;;;;;35.63;21.10;;;;;;;2.32;79.14;97330.06;1782995;77;25723;-79
2021/04/17 02:26:04;;;;;;;36.83;21.60;;;;;;;2.30;79.11;97328.05;1788709;77;26251;-79
2021/04/17 02:28:32;;;;;;;36.00;22.15;;;;;;;2.32;79.12;97325.23;1797380;78;25734;-79
2021/04/17 02:31:04;;;;;;;35.63;22.58;;;;;;;2.31;79.11;97324.39;1790507;77;25706;-78
2021/04/17 02:33:32;;;;;;;37.20;21.45;;;;;;;2.31;79.08;97322.23;1822522;77;28424;-78
2021/04/17 02:35:59;;;;;;;39.27;24.00;;;;;;;2.28;79.06;97326.08;1786432;78;26402;-78
2021/04/17 02:38:27;;;;;;;55.12;28.20;;;;;;;2.24;79.13;97322.05;1776231;78;25794;-78
2021/04/17 02:40:54;;;;;;;53.20;28.52;;;;;;;2.24;79.13;97321.22;1779410;78;25729;-78
2021/04/17 02:43:22;;;;;;;69.50;34.15;;;;;;;2.23;79.15;97318.22;1794842;78;25803;-79
2021/04/17 02:45:49;;;;;;;88.95;37.70;;;;;;;2.21;79.13;97321.04;1776543;78;27482;-78
2021/04/17 02:48:16;;;;;;;80.25;40.43;;;;;;;2.20;79.12;97318.03;1792733;78;25725;-79
2021/04/17 02:50:44;;;;;;;63.02;31.37;;;;;;;2.18;79.15;97314.70;1818285;77;25587;-79
2021/04/17 02:53:11;;;;;;;38.95;24.35;;;;;;;2.17;79.18;97317.05;1811296;77;25758;-79
2021/04/17 02:55:39;;;;;;;33.18;20.88;;;;;;;2.15;79.16;97319.03;1803725;78;25695;-79
2021/04/17 02:58:06;;;;;;;36.63;22.27;;;;;;;2.13;79.19;97315.70;1797069;77;27484;-79
2021/04/17 03:00:33;;;;;;;34.15;21.95;;;;;;;2.12;79.24;97316.19;1809325;78;25726;-79
2021/04/17 03:03:01;;;;;;;35.10;21.40;;;;;;;2.13;79.29;97318.36;1776059;78;26301;-79
2021/04/17 03:05:29;;;;;;;34.27;20.65;;;;;;;2.12;79.31;97316.19;1797290;78;25830;-79
2021/04/17 03:07:56;;;;;;;37.42;22.62;;;;;;;2.11;79.29;97315.85;1808300;78;25729;-79
2021/04/17 03:10:24;;;;;;;44.08;24.57;;;;;;;2.12;79.30;97314.86;1819687;78;27538;-79
2021/04/17 03:12:51;;;;;;;43.60;24.23;;;;;;;2.12;79.31;97324.67;1807321;77;26298;-79
2021/04/17 03:15:19;;;;;;;57.33;28.15;;;;;;;2.11;79.34;97319.01;1775731;78;25661;-79
2021/04/17 03:17:46;;;;;;;86.15;36.60;;;;;;;2.12;79.35;97316.69;1803623;78;25320;-79
2021/04/17 03:20:14;;;;;;;83.37;38.60;;;;;;;2.12;79.35;97320.68;1777493;78;25716;-79
2021/04/17 03:22:42;;;;;;;59.67;37.70;;;;;;;2.12;79.37;97323.34;1800348;78;27551;-79
2021/04/17 03:25:12;;;;;;;41.60;23.67;;;;;;;2.12;79.37;97324.67;1788241;77;25705;-79
2021/04/17 03:27:41;;;;;;;33.85;21.30;;;;;;;2.13;79.35;97325.02;1789829;78;25853;-79
2021/04/17 03:30:13;;;;;;;30.90;18.98;;;;;;;2.14;79.34;97330.68;1800907;78;26152;-79
2021/04/17 03:32:41;;;;;;;32.88;20.37;;;;;;;2.12;79.33;97327.34;1781604;78;25865;-79
2021/04/17 03:35:11;;;;;;;30.35;19.37;;;;;;;2.08;79.30;97328.64;1790157;78;27664;-79
2021/04/17 03:37:40;;;;;;;33.75;21.70;;;;;;;2.09;79.34;97328.98;1802957;78;25696;-79
2021/04/17 03:40:10;;;;;;;34.63;20.95;;;;;;;2.10;79.36;97330.16;1798045;78;26227;-79
2021/04/17 03:42:39;;;;;;;33.30;20.00;;;;;;;2.08;79.33;97328.64;1775588;78;25787;-79
2021/04/17 03:45:08;;;;;;;30.17;18.27;;;;;;;2.06;79.37;97332.80;1775584;78;26271;-79
2021/04/17 03:47:36;;;;;;;33.63;18.85;;;;;;;2.04;79.37;97333.47;1795408;78;27496;-79
2021/04/17 03:50:07;;;;;;;35.58;20.37;;;;;;;2.00;79.38;97328.62;1818880;78;25666;-79
2021/04/17 03:52:35;;;;;;;36.53;21.20;;;;;;;2.00;79.50;97331.28;1801401;78;25787;-79
2021/04/17 03:55:10;;;;;;;34.58;19.82;;;;;;;2.01;79.55;97331.62;1776225;78;25840;-79
2021/04/17 03:57:38;;;;;;;34.88;19.75;;;;;;;2.00;79.57;97332.61;1792499;78;25768;-80
2021/04/17 04:00:08;;;;;;;30.95;18.52;;;;;;;2.02;79.57;97330.63;1775509;78;27564;-79
2021/04/17 04:02:37;;;;;;;39.95;23.05;;;;;;;2.03;79.59;97332.30;1803518;78;26217;-79
2021/04/17 04:05:06;;;;;;;45.60;24.02;;;;;;;2.02;79.60;97328.80;1792375;78;25868;-79
2021/04/17 04:07:34;;;;;;;61.83;30.95;;;;;;;2.02;79.60;97329.30;1801255;78;25795;-80
2021/04/17 04:10:01;;;;;;;45.10;22.20;;;;;;;2.03;79.65;97327.81;1796492;78;25825;-80
2021/04/17 04:12:29;;;;;;;36.63;20.70;;;;;;;2.06;79.68;97329.30;1806156;78;28395;-80
2021/04/17 04:14:56;;;;;;;43.73;22.87;;;;;;;2.08;79.69;97337.96;1793974;78;25763;-79
2021/04/17 04:17:24;;;;;;;46.92;24.23;;;;;;;2.09;79.70;97335.64;1792597;78;26355;-80
2021/04/17 04:19:51;;;;;;;37.30;21.73;;;;;;;2.10;79.71;97334.65;1792591;78;25706;-79
2021/04/17 04:22:19;;;;;;;37.30;21.25;;;;;;;2.11;79.71;97333.66;1792599;78;25719;-80
2021/04/17 04:24:46;;;;;;;39.50;21.42;;;;;;;2.13;79.75;97331.67;1792415;77;27486;-79
2021/04/17 04:27:13;;;;;;;30.68;20.17;;;;;;;2.17;79.81;97341.02;1796974;78;26119;-79
2021/04/17 04:29:41;;;;;;;31.82;19.25;;;;;;;2.20;79.78;97342.00;1818341;78;25733;-79
2021/04/17 04:32:08;;;;;;;31.82;20.00;;;;;;;2.16;79.64;97339.34;1797221;78;26486;-79
2021/04/17 04:34:36;;;;;;;30.90;18.77;;;;;;;2.17;79.72;97342.34;1798360;78;25739;-79
2021/04/17 04:37:03;;;;;;;31.62;17.85;;;;;;;2.21;79.80;97343.67;1802019;78;27498;-79
2021/04/17 04:39:31;;;;;;;27.25;17.80;;;;;;;2.22;79.84;97341.35;1792524;77;26150;-79
2021/04/17 04:41:58;;;;;;;28.55;17.62;;;;;;;2.25;79.83;97345.03;1816848;78;25896;-80
2021/04/17 04:44:26;;;;;;;28.60;17.52;;;;;;;2.30;79.85;97340.53;1800433;78;26172;-79
2021/04/17 04:46:53;;;;;;;31.42;19.57;;;;;;;2.33;79.84;97346.88;1802337;77;25305;-79
2021/04/17 04:49:21;;;;;;;31.17;19.50;;;;;;;2.35;79.84;97346.23;1801497;78;27490;-79
2021/04/17 04:51:48;;;;;;;39.23;26.68;;;;;;;2.32;79.79;97348.71;1813602;78;25854;-79
2021/04/17 04:54:15;;;;;;;44.03;30.62;;;;;;;2.34;79.82;97346.72;1803116;78;26533;-79
2021/04/17 04:56:43;;;;;;;52.58;33.58;;;;;;;2.38;79.89;97345.91;1800247;78;26035;-79
2021/04/17 04:59:10;;;;;;;54.75;33.08;;;;;;;2.42;79.90;97347.23;1800001;78;25702;-79
2021/04/17 05:01:38;;;;;;;54.23;31.60;;;;;;;2.44;79.89;97343.42;1815231;78;27553;-80
2021/04/17 05:04:06;;;;;;;53.60;31.68;;;;;;;2.49;79.93;97345.11;1812600;78;25794;-79
2021/04/17 05:06:33;;;;;;;42.27;26.45;;;;;;;2.53;79.96;97345.13;1795022;78;25694;-79
2021/04/17 05:09:01;;;;;;;46.25;27.17;;;;;;;2.59;79.90;97353.45;1792853;78;26161;-80
2021/04/17 05:11:28;;;;;;;37.50;22.52;;;;;;;2.61;79.89;97350.14;1792747;78;26313;-80
2021/04/17 05:13:57;;;;;;;28.80;18.62;;;;;;;2.64;79.86;97343.16;1792791;78;27544;-80
2021/04/17 05:16:25;;;;;;;38.45;23.98;;;;;;;2.66;79.79;97345.97;1792684;78;25880;-79
2021/04/17 05:18:52;;;;;;;34.55;21.25;;;;;;;2.67;79.71;97350.80;1792695;78;26227;-79
2021/04/17 05:21:19;;;;;;;34.70;21.17;;;;;;;2.70;79.66;97342.48;1815717;78;25868;-79
2021/04/17 05:23:47;;;;;;;31.35;20.52;;;;;;;2.71;79.65;97344.16;1792836;78;25877;-79
2021/04/17 05:26:14;;;;;;;37.42;21.65;;;;;;;2.75;79.64;97346.34;1792811;78;29312;-79
2021/04/17 05:28:42;;;;;;;38.65;21.62;;;;;;;2.76;79.65;97345.34;1823351;78;26243;-80
2021/04/17 05:31:10;;;;;;;39.78;22.65;;;;;;;2.77;79.66;97347.52;1807268;78;25669;-79
2021/04/17 05:33:37;;;;;;;39.25;22.80;;;;;;;2.75;79.64;97346.34;1792721;78;25927;-79
2021/04/17 05:36:06;;;;;;;37.48;21.15;;;;;;;2.78;79.70;97345.99;1792735;78;25751;-79
2021/04/17 05:38:34;;;;;;;35.20;20.52;;;;;;;2.85;79.79;97345.69;1792664;78;28464;-79
2021/04/17 05:41:03;;;;;;;31.95;19.67;;;;;;;2.94;79.83;97353.19;1792664;78;25749;-79
2021/04/17 05:43:30;;;;;;;28.00;18.32;;;;;;;3.02;79.72;97353.19;1792583;78;26329;-79
2021/04/17 05:45:58;;;;;;;28.42;18.23;;;;;;;3.00;79.54;97348.55;1792615;78;25790;-79
2021/04/17 05:48:25;;;;;;;27.73;16.65;;;;;;;3.02;79.45;97347.85;1792539;78;25824;-79
2021/04/17 05:50:53;;;;;;;28.00;18.10;;;;;;;3.02;79.34;97349.19;1815271;77;28465;-80
2021/04/17 05:53:20;;;;;;;30.85;18.42;;;;;;;3.07;79.42;97348.20;1792314;78;25691;-79
2021/04/17 05:55:48;;;;;;;33.80;20.00;;;;;;;3.16;79.43;97354.37;1792562;78;25424;-79
2021/04/17 05:58:16;;;;;;;38.65;23.10;;;;;;;3.21;79.42;97350.22;1792985;78;25797;-79
2021/04/17 06:00:43;;;;;;;38.20;23.00;;;;;;;3.26;79.43;97355.03;1792704;78;25774;-79
2021/04/17 06:03:10;;;;;;;42.80;24.05;;;;;;;3.31;79.36;97343.87;1794661;78;27485;-79
2021/04/17 06:05:38;;;;;;;35.58;21.52;;;;;;;3.37;79.40;97351.22;1802917;78;26415;-79
2021/04/17 06:08:06;;;;;;;46.85;28.83;;;;;;;3.45;79.51;97344.53;1783620;78;25814;-80
2021/04/17 06:10:34;;;;;;;45.15;28.50;;;;;;;3.54;79.54;97340.34;1789881;78;25700;-79
2021/04/17 06:13:01;;;;;;;38.60;23.85;;;;;;;3.61;79.46;97333.34;1777971;78;25756;-79
2021/04/17 06:15:29;;;;;;;37.53;22.77;;;;;;;3.67;79.41;97337.66;1791962;78;27476;-79
2021/04/17 06:17:56;;;;;;;39.85;20.82;;;;;;;3.74;79.42;97332.82;1795121;77;25846;-79
2021/04/17 06:20:24;;;;;;;37.98;19.92;;;;;;;3.82;79.36;97338.63;1813737;78;25691;-79
2021/04/17 06:22:51;;;;;;;31.82;18.02;;;;;;;3.87;79.11;97337.59;1785478;78;25782;-79
2021/04/17 06:25:19;;;;;;;27.77;16.25;;;;;;;3.83;78.92;97333.63;1801636;78;25710;-79
2021/04/17 06:27:46;;;;;;;26.50;16.85;;;;;;;3.80;79.02;97337.47;1787585;78;28382;-79
2021/04/17 06:30:17;;;;;;;26.50;17.55;;;;;;;3.78;78.92;97340.80;1775488;78;26324;-79
2021/04/17 06:32:45;;;;;;;35.55;20.60;;;;;;;3.79;79.06;97343.80;1775584;78;25749;-79
2021/04/17 06:35:13;;;;;;;22.95;16.40;;;;;;;3.87;79.18;97343.77;1786402;77;25751;-79
2021/04/17 06:37:41;;;;;;;25.80;16.77;;;;;;;3.88;78.99;97345.45;1790997;78;25333;-79
2021/04/17 06:40:10;;;;;;;22.10;16.17;;;;;;;3.88;78.88;97340.10;1797097;78;28494;-79
2021/04/17 06:42:41;;;;;;;23.52;15.25;;;;;;;3.97;78.81;97332.42;1818873;78;26125;-79
2021/04/17 06:45:11;;;;;;;23.83;15.50;;;;;;;4.07;78.78;97340.73;1788386;78;25906;-78
2021/04/17 06:47:41;;;;;;;18.92;12.53;;;;;;;4.19;78.79;97334.01;1808409;78;25767;-79
2021/04/17 06:50:11;;;;;;;19.12;12.50;;;;;;;4.28;78.53;97336.47;1808441;78;26008;-79
2021/04/17 06:52:41;;;;;;;17.65;12.53;;;;;;;4.33;78.30;97343.97;1774643;78;27491;-79
2021/04/17 06:55:11;;;;;;;14.80;10.95;;;;;;;4.41;78.23;97337.75;1809033;77;26380;-79
2021/04/17 06:57:41;;;;;;;16.12;11.18;;;;;;;4.45;78.07;97331.06;1776845;78;25802;-79
2021/04/17 07:00:12;;;;;;;17.37;12.68;;;;;;;4.45;77.92;97331.89;1791600;78;25795;-79
2021/04/17 07:02:42;;;;;;;18.82;12.23;;;;;;;4.50;77.93;97336.69;1808287;78;25391;-79
2021/04/17 07:05:10;;;;;;;21.02;12.93;;;;;;;4.57;77.77;97335.00;1785291;78;27493;-79
2021/04/17 07:07:38;;;;;;;21.60;14.15;;;;;;;4.63;77.66;97335.63;1802957;77;25734;-80
2021/04/17 07:10:07;;;;;;;22.05;14.60;;;;;;;4.73;77.70;97340.23;1750236;79;25883;-79
2021/04/17 07:12:34;;;;;;;21.23;15.55;;;;;;;4.80;77.69;97332.36;1796577;77;26600;-80
2021/04/17 07:15:08;;;;;;;19.42;13.93;;;;;;;4.87;77.48;97338.65;1783831;78;25751;-80
2021/04/17 07:17:37;;;;;;;11.80;8.80;;;;;;;4.93;77.41;97339.30;1787315;78;27342;-80
2021/04/17 07:20:13;;;;;;;14.03;9.28;;;;;;;4.96;77.18;97337.58;1794858;78;25874;-80
2021/04/17 07:22:43;;;;;;;14.13;9.00;;;;;;;5.02;77.10;97340.89;1791042;77;25782;-79
2021/04/17 07:25:15;;;;;;;14.05;9.65;;;;;;;5.04;76.84;97337.55;1778502;78;26384;-80
2021/04/17 07:27:45;;;;;;;;;;;;;;;5.04;76.74;97345.57;1793225;78;25690;-80
2021/04/17 07:30:24;;;;;;;18.85;12.23;;;;;;;5.07;76.70;97350.03;1798633;78;27493;-80
2021/04/17 07:33:14;;;;;;;18.52;12.88;;;;;;;5.00;76.65;97346.92;1775633;78;25680;-79
2021/04/17 07:35:46;;;;;;;18.00;12.43;;;;;;;4.85;76.73;97348.69;1783254;78;25842;-79
2021/04/17 07:38:21;;;;;;;19.07;12.37;;;;;;;4.84;76.87;97349.70;1775194;78;26257;-79
2021/04/17 07:41:12;;;;;;;22.93;12.73;;;;;;;4.91;76.79;97348.83;1794067;77;25747;-80
2021/04/17 07:43:55;;;;;;;21.90;11.75;;;;;;;4.95;76.67;97351.99;1767410;78;27712;-79
2021/04/17 07:46:42;;;;;;;14.65;9.63;;;;;;;4.98;76.37;97350.28;1775612;78;26354;-79
2021/04/17 07:49:21;;;;;;;12.47;7.87;;;;;;;4.99;76.21;97355.95;1794855;78;25797;-79
2021/04/17 07:52:04;;;;;;;7.78;5.33;;;;;;;4.89;76.13;97350.02;1790464;77;25770;-79
2021/04/17 07:54:33;;;;;;;10.63;6.45;;;;;;;4.92;76.06;97349.66;1791560;78;25519;-79
2021/04/17 07:57:09;;;;;;;8.10;5.50;;;;;;;5.00;75.98;97349.09;1812833;78;27489;-79
2021/04/17 07:59:42;;;;;;;7.65;5.67;;;;;;;5.06;75.77;97356.42;1788328;78;26143;-79
2021/04/17 08:02:15;;;;;;;8.30;6.08;;;;;;;5.14;75.58;97356.03;1808547;78;25473;-78
2021/04/17 08:05:05;;;;;;;14.58;9.53;;;;;;;5.16;75.44;97345.98;1783724;78;25769;-79
2021/04/17 08:07:35;;;;;;;10.98;7.55;;;;;;;5.19;75.58;97347.80;1803010;78;25695;-78
2021/04/17 08:10:05;;;;;;;12.18;7.40;;;;;;;5.10;75.50;97351.53;1807113;78;27493;-79
2021/04/17 08:12:35;;;;;;;19.75;12.05;;;;;;;5.06;75.60;97355.09;1818980;77;25750;-79
2021/04/17 08:15:07;;;;;;;12.40;7.75;;;;;;;5.04;75.46;97352.26;1819048;77;25274;-79
2021/04/17 08:17:39;;;;;;;12.43;8.75;;;;;;;4.93;75.32;97355.34;1819119;78;25901;-79
2021/04/17 08:20:09;;;;;;;;;;;;;;;4.88;75.48;97360.38;1801377;77;26320;-79
2021/04/17 08:22:39;;;;;;;10.72;8.18;;;;;;;4.79;75.54;97356.93;1781304;78;27503;-79
2021/04/17 08:25:09;;;;;;;14.43;9.28;;;;;;;4.86;75.78;97359.72;1781324;77;26069;-79
2021/04/17 08:27:37;;;;;;;13.25;8.60;;;;;;;4.99;75.72;97366.66;1789559;78;25748;-79
2021/04/17 08:30:09;;;;;;;13.15;8.50;;;;;;;5.09;75.45;97365.92;1794834;78;26245;-80
2021/04/17 08:32:40;;;;;;;14.05;9.00;;;;;;;4.99;75.20;97363.98;1795377;78;26161;-80
2021/04/17 08:35:18;;;;;;;17.42;10.65;;;;;;;4.97;75.32;97366.00;1792550;78;27525;-79
2021/04/17 08:37:57;;;;;;;13.18;9.18;;;;;;;4.98;75.29;97366.33;1775448;78;25751;-79
2021/04/17 08:40:46;;;;;;;13.30;8.23;;;;;;;5.10;75.27;97363.57;1799393;78;25345;-79
2021/04/17 08:43:28;;;;;;;13.65;7.70;;;;;;;5.18;75.13;97362.20;1812871;78;26515;-77
2021/04/17 08:46:22;;;;;;;11.15;7.03;;;;;;;5.15;75.04;97360.38;1813820;78;25699;-77
2021/04/17 08:49:01;;;;;;;10.60;7.45;;;;;;;5.15;75.24;97369.73;1802931;78;28527;-77
2021/04/17 08:51:36;;;;;;;15.15;8.48;;;;;;;5.19;75.15;97362.53;1802862;77;25782;-77
2021/04/17 08:54:14;;;;;;;12.25;7.58;;;;;;;5.16;75.08;97356.19;1776312;79;25867;-78
2021/04/17 08:57:05;;;;;;;11.28;5.95;;;;;;;5.22;75.07;97362.65;1765252;80;25789;-78
2021/04/17 08:59:36;;;;;;;8.53;6.25;;;;;;;5.19;74.80;97365.20;1739993;80;25721;-78
2021/04/17 09:02:09;;;;;;;9.43;6.35;;;;;;;5.12;74.82;97366.91;1757309;80;28411;-78
2021/04/17 09:05:11;;;;;;;12.53;9.25;;;;;;;5.07;74.87;97363.41;1779276;78;26392;-78
2021/04/17 09:07:44;;;;;;;14.23;9.18;;;;;;;5.18;74.89;97363.53;1677979;84;25572;-78
2021/04/17 09:10:35;;;;;;;13.95;8.75;;;;;;;5.30;74.95;97362.10;1669258;84;26421;-78
2021/04/17 09:16:05;;;;;;;10.13;7.07;;;;;;;5.66;74.40;97353.42;1824205;76;25655;-80
2021/04/17 09:18:40;;;;;;;10.95;6.42;;;;;;;5.59;74.33;97356.48;1809881;77;25833;-81
2021/04/17 09:21:15;;;;;;;9.80;6.85;;;;;;;5.53;74.38;97357.23;1780373;78;27489;-80
2021/04/17 09:23:51;;;;;;;11.22;7.25;;;;;;;5.57;74.61;97354.49;1775917;78;26133;-80
2021/04/17 09:26:36;;;;;;;10.55;7.25;;;;;;;5.67;74.52;97355.09;1804882;78;26140;-80
2021/04/17 09:29:18;;;;;;;8.43;6.30;;;;;;;5.71;74.54;97352.36;1783078;78;25686;-80
2021/04/17 09:31:46;;;;;;;10.90;6.17;;;;;;;5.76;74.14;97351.31;1779138;78;26037;-80
2021/04/17 09:34:16;;;;;;;13.28;7.50;;;;;;;5.85;74.24;97352.89;1803551;77;27586;-79
2021/04/17 09:36:48;;;;;;;9.30;6.50;;;;;;;5.97;74.28;97350.12;1790959;78;25693;-80
2021/04/17 09:39:32;;;;;;;8.50;5.55;;;;;;;6.00;73.94;97350.27;1786815;78;25662;-80
2021/04/17 09:42:04;;;;;;;8.40;5.80;;;;;;;5.95;73.64;97348.13;1781328;78;26344;-80
2021/04/17 09:44:44;;;;;;;9.85;5.62;;;;;;;5.87;73.46;97353.55;1781578;78;25802;-80
2021/04/17 09:47:16;;;;;;;10.38;7.12;;;;;;;5.86;73.47;97355.90;1782021;78;27493;-80
2021/04/17 09:49:47;;;;;;;12.33;7.70;;;;;;;5.72;73.55;97354.86;1790119;78;25768;-80
2021/04/17 09:52:18;;;;;;;14.93;9.15;;;;;;;5.76;73.74;97360.69;1810299;78;25800;-79
2021/04/17 09:55:01;;;;;;;13.53;7.65;;;;;;;5.78;73.88;97355.99;1803639;78;26237;-80
2021/04/17 09:57:30;;;;;;;10.78;7.40;;;;;;;5.67;73.58;97352.42;1786659;78;25708;-80
2021/04/17 10:00:01;;;;;;;9.13;6.95;;;;;;;5.65;73.72;97351.77;1797755;77;27492;-80
2021/04/17 10:02:49;;;;;;;12.95;7.92;;;;;;;5.74;73.85;97346.14;1776197;78;25766;-80
2021/04/17 10:05:33;;;;;;;11.38;7.42;;;;;;;5.86;73.97;97343.84;1793950;77;25736;-80
2021/04/17 10:08:01;;;;;;;13.48;8.48;;;;;;;6.14;74.20;97336.88;1800353;77;25851;-81
2021/04/17 10:10:38;;;;;;;13.78;8.80;;;;;;;6.39;73.94;97345.97;1776314;78;25830;-80
2021/04/17 10:13:05;;;;;;;15.60;9.30;;;;;;;6.48;73.51;97339.48;1795519;78;27500;-80
2021/04/17 10:15:37;;;;;;;13.60;8.20;;;;;;;6.74;73.80;97335.78;1794225;78;26213;-80
2021/04/17 10:18:05;;;;;;;11.73;8.30;;;;;;;6.95;73.44;97336.82;1796237;78;25765;-79
2021/04/17 10:20:33;;;;;;;10.80;7.20;;;;;;;7.01;73.07;97334.70;1776658;78;25836;-79
2021/04/17 10:23:03;;;;;;;11.43;7.20;;;;;;;7.11;72.51;97333.39;1812428;78;25810;-80
2021/04/17 10:25:44;;;;;;;10.40;6.35;;;;;;;7.29;72.41;97334.27;1803677;78;27669;-80
2021/04/17 10:28:16;;;;;;;8.85;6.28;;;;;;;7.43;71.98;97333.88;1810725;78;25710;-80
2021/04/17 10:30:51;;;;;;;10.68;6.35;;;;;;;7.55;71.56;97337.20;1792771;78;32412;-80
2021/04/17 10:33:27;;;;;;;9.33;6.55;;;;;;;7.49;71.49;97335.27;1802703;78;25782;-80
2021/04/17 10:35:59;;;;;;;8.88;6.33;;;;;;;7.42;71.37;97333.05;1800631;78;25735;-78
2021/04/17 10:38:35;;;;;;;10.40;7.10;;;;;;;7.41;71.26;97333.23;1793400;77;27485;-80
2021/04/17 10:41:05;;;;;;;10.68;7.53;;;;;;;7.47;71.35;97327.11;1800453;78;25769;-80
2021/04/17 10:43:34;;;;;;;13.08;8.78;;;;;;;7.51;71.19;97328.37;1793109;77;26573;-80
2021/04/17 10:46:06;;;;;;;15.88;8.60;;;;;;;7.55;71.16;97333.68;1806194;78;26616;-80
2021/04/17 10:48:46;;;;;;;12.90;7.65;;;;;;;7.49;70.82;97338.47;1806247;78;25663;-80
2021/04/17 10:51:17;;;;;;;12.82;7.50;;;;;;;7.41;70.92;97337.27;1806194;78;27495;-79
2021/04/17 10:53:49;;;;;;;8.40;5.58;;;;;;;7.56;70.82;97325.43;1795788;78;25674;-80
2021/04/17 10:56:23;;;;;;;8.30;5.45;;;;;;;7.57;70.50;97336.50;1797845;78;25742;-80
2021/04/17 10:59:07;;;;;;;9.70;5.83;;;;;;;7.65;70.16;97330.66;1797531;78;25793;-80
2021/04/17 11:01:38;;;;;;;6.42;5.22;;;;;;;7.79;70.09;97329.73;1812434;78;25288;-80
2021/04/17 11:04:07;;;;;;;7.85;5.83;;;;;;;7.74;69.93;97328.13;1812535;78;27496;-81
2021/04/17 11:06:40;;;;;;;7.70;5.17;;;;;;;7.69;69.99;97325.22;1797517;78;26205;-80
2021/04/17 11:09:18;;;;;;;7.87;5.67;;;;;;;7.74;69.87;97324.93;1798191;78;25710;-80
2021/04/17 11:12:03;;;;;;;6.83;4.83;;;;;;;7.69;69.72;97326.56;1810898;78;26080;-79
2021/04/17 11:14:31;;;;;;;8.18;4.97;;;;;;;7.70;69.49;97325.53;1811863;78;25696;-80
2021/04/17 11:16:59;;;;;;;9.20;5.78;;;;;;;7.61;69.41;97322.69;1796946;77;27557;-80
2021/04/17 11:19:31;;;;;;;7.75;5.03;;;;;;;7.63;69.45;97317.92;1789467;78;25731;-80
2021/04/17 11:22:20;;;;;;;9.18;5.30;;;;;;;7.76;69.24;97318.86;1802205;78;25814;-79
2021/04/17 11:25:07;;;;;;;7.35;5.20;;;;;;;7.86;69.34;97321.19;1801099;77;26134;-80
2021/04/17 11:27:35;;;;;;;10.53;5.37;;;;;;;7.67;69.05;97321.38;1792577;78;26271;-80
2021/04/17 11:30:07;;;;;;;7.53;4.95;;;;;;;7.54;69.32;97322.61;1792369;78;27466;-80
2021/04/17 11:32:36;;;;;;;7.30;5.15;;;;;;;7.63;69.34;97324.64;1798278;78;25753;-80
2021/04/17 11:35:08;;;;;;;9.73;5.92;;;;;;;7.80;68.90;97327.37;1819795;77;25786;-80
2021/04/17 11:37:36;;;;;;;8.58;5.15;;;;;;;7.86;69.00;97325.22;1805505;78;26100;-80
2021/04/17 11:40:06;;;;;;;17.32;6.03;;;;;;;7.78;68.68;97324.03;1792919;78;25687;-79
2021/04/17 11:42:34;;;;;;;6.58;4.95;;;;;;;7.53;68.73;97329.01;1818540;78;27476;-79
2021/04/17 11:45:02;;;;;;;7.28;5.30;;;;;;;7.42;69.14;97328.19;1797007;78;26146;-80
2021/04/17 11:47:29;;;;;;;8.13;5.92;;;;;;;7.29;68.90;97332.93;1785788;78;25830;-79
2021/04/17 11:49:57;;;;;;;8.45;5.90;;;;;;;7.20;69.20;97335.43;1800546;78;25706;-79
2021/04/17 11:52:24;;;;;;;8.50;6.15;;;;;;;7.05;69.21;97334.66;1794013;78;25691;-79